This is the latest recevied weather packets stored in our database for station/object DG5MNJ. If no packets are shown the sender has not sent any weather packets the latest 10 day(s).
| Time | Temp. | Humidity | Pressure | Rain* | Wind** | Luminosity | Snow |
|---|---|---|---|---|---|---|---|
| 1777074002 | 7.22° C | 57% | 1016.2 hPa | 0 mm | - | 0 W/m² | - |
| 1777072802 | 7.22° C | 57% | 1016.3 hPa | 0 mm | - | 0 W/m² | - |
| 1777070702 | 7.22° C | 59% | 1016.7 hPa | 0 mm | - | 0 W/m² | - |
| 1777070105 | 7.22° C | 58% | 1016.7 hPa | 0 mm | - | 0 W/m² | - |
| 1777068003 | 8.33° C | 55% | 1016.8 hPa | 0 mm | - | 0 W/m² | - |
| 1777067703 | 8.33° C | 54% | 1016.9 hPa | 0 mm | - | 0 W/m² | - |
| 1777065602 | 8.89° C | 53% | 1016.9 hPa | 0 mm | - | 0 W/m² | - |
| 1777065022 | 9.44° C | 52% | 1017 hPa | 0 mm | - | 0 W/m² | - |
| 1777062602 | 10° C | 51% | 1016.8 hPa | 0 mm | - | 0 W/m² | - |
| 1777062302 | 10.56° C | 49% | 1016.9 hPa | 0 mm | - | 0 W/m² | - |
| 1777062004 | 10.56° C | 50% | 1016.7 hPa | 0 mm | - | 0 W/m² | - |
| 1777060802 | 11.11° C | 50% | 1016.9 hPa | 0 mm | - | 0 W/m² | - |
| 1777060202 | 11.67° C | 48% | 1016.9 hPa | 0 mm | - | 0 W/m² | - |
| 1777056904 | 14.44° C | 38% | 1016.4 hPa | 0 mm | - | 0 W/m² | - |
| 1777053022 | 17.22° C | 31% | 1015.7 hPa | 0 mm | - | 12 W/m² | - |
| 1777049703 | 19.44° C | 28% | 1015.5 hPa | 0 mm | - | 152 W/m² | - |
| 1777047302 | 20.56° C | 25% | 1015.4 hPa | 0 mm | - | 290 W/m² | - |
| 1777045802 | 20° C | 24% | 1015.6 hPa | 0 mm | - | 355 W/m² | - |
| 1777042202 | 20.56° C | 23% | 1015.8 hPa | 0 mm | - | 548 W/m² | - |
| 1777041002 | 20.56° C | 23% | 1015.9 hPa | 0 mm | - | 604 W/m² | - |
| 1777033202 | 19.44° C | 27% | 1016.9 hPa | 0 mm | - | 839 W/m² | - |
| 1777032002 | 19.44° C | 27% | 1016.9 hPa | 0 mm | - | 865 W/m² | - |
| 1777031102 | 18.89° C | 30% | 1017.1 hPa | 0 mm | - | 871 W/m² | - |
| 1777029902 | 18.33° C | 27% | 1017.4 hPa | 0 mm | - | 884 W/m² | - |
| 1777029602 | 18.89° C | 27% | 1017.4 hPa | 0 mm | - | 876 W/m² | - |
* Rain latest hour (hover to see other rain measurements)
** Current wind speed in m/s (hover to see current wind gust speed)